sensor_id;sensor_type;location;lat;lon;timestamp;temperature;humidity
39033;DHT22;24794;51.982;5.878;2024-01-15T00:00:41;2.90;99.90
39033;DHT22;24794;51.982;5.878;2024-01-15T00:01:43;2.90;99.90
39033;DHT22;24794;51.982;5.878;2024-01-15T00:02:47;2.90;99.90
39033;DHT22;24794;51.982;5.878;2024-01-15T00:03:48;2.90;99.90
39033;DHT22;24794;51.982;5.878;2024-01-15T00:04:48;2.90;99.90
39033;DHT22;24794;51.982;5.878;2024-01-15T00:05:49;2.90;99.90
39033;DHT22;24794;51.982;5.878;2024-01-15T00:06:49;2.80;99.90
39033;DHT22;24794;51.982;5.878;2024-01-15T00:07:50;2.80;99.90
39033;DHT22;24794;51.982;5.878;2024-01-15T00:08:51;2.80;99.90
39033;DHT22;24794;51.982;5.878;2024-01-15T00:09:51;2.80;99.90
39033;DHT22;24794;51.982;5.878;2024-01-15T00:10:52;2.90;99.90
39033;DHT22;24794;51.982;5.878;2024-01-15T00:11:52;2.90;99.90
39033;DHT22;24794;51.982;5.878;2024-01-15T00:12:53;2.90;99.90
39033;DHT22;24794;51.982;5.878;2024-01-15T00:13:53;2.80;99.90
39033;DHT22;24794;51.982;5.878;2024-01-15T00:14:54;2.90;99.90
39033;DHT22;24794;51.982;5.878;2024-01-15T00:15:54;2.80;99.90
39033;DHT22;24794;51.982;5.878;2024-01-15T00:16:55;2.80;99.90
39033;DHT22;24794;51.982;5.878;2024-01-15T00:17:56;2.90;99.90
39033;DHT22;24794;51.982;5.878;2024-01-15T00:18:56;2.80;99.90
39033;DHT22;24794;51.982;5.878;2024-01-15T00:19:57;2.80;99.90
39033;DHT22;24794;51.982;5.878;2024-01-15T00:20:57;2.80;99.90
39033;DHT22;24794;51.982;5.878;2024-01-15T00:21:58;2.80;99.90
39033;DHT22;24794;51.982;5.878;2024-01-15T00:22:59;2.80;99.90
39033;DHT22;24794;51.982;5.878;2024-01-15T00:23:59;2.80;99.90
39033;DHT22;24794;51.982;5.878;2024-01-15T00:25:00;2.80;99.90
39033;DHT22;24794;51.982;5.878;2024-01-15T00:26:01;2.80;99.90
39033;DHT22;24794;51.982;5.878;2024-01-15T00:27:01;2.80;99.90
39033;DHT22;24794;51.982;5.878;2024-01-15T00:28:02;2.80;99.90
39033;DHT22;24794;51.982;5.878;2024-01-15T00:29:03;2.70;99.90
39033;DHT22;24794;51.982;5.878;2024-01-15T00:30:04;2.80;99.90
39033;DHT22;24794;51.982;5.878;2024-01-15T00:31:05;2.70;99.90
39033;DHT22;24794;51.982;5.878;2024-01-15T00:32:05;2.70;99.90
39033;DHT22;24794;51.982;5.878;2024-01-15T00:33:06;2.70;99.90
39033;DHT22;24794;51.982;5.878;2024-01-15T00:34:07;2.70;99.90
39033;DHT22;24794;51.982;5.878;2024-01-15T00:35:08;2.70;99.90
39033;DHT22;24794;51.982;5.878;2024-01-15T00:36:08;2.70;99.90
39033;DHT22;24794;51.982;5.878;2024-01-15T00:37:09;2.70;99.90
39033;DHT22;24794;51.982;5.878;2024-01-15T00:38:10;2.70;99.90
39033;DHT22;24794;51.982;5.878;2024-01-15T00:39:10;2.70;99.90
39033;DHT22;24794;51.982;5.878;2024-01-15T00:40:11;2.70;99.90
39033;DHT22;24794;51.982;5.878;2024-01-15T00:41:12;2.70;99.90
39033;DHT22;24794;51.982;5.878;2024-01-15T00:42:12;2.70;99.90
39033;DHT22;24794;51.982;5.878;2024-01-15T00:43:13;2.70;99.90
39033;DHT22;24794;51.982;5.878;2024-01-15T00:44:13;2.70;99.90
39033;DHT22;24794;51.982;5.878;2024-01-15T00:45:14;2.70;99.90
39033;DHT22;24794;51.982;5.878;2024-01-15T00:46:15;2.60;99.90
39033;DHT22;24794;51.982;5.878;2024-01-15T00:47:18;2.60;99.90
39033;DHT22;24794;51.982;5.878;2024-01-15T00:48:18;2.60;99.90
39033;DHT22;24794;51.982;5.878;2024-01-15T00:49:19;2.60;99.90
39033;DHT22;24794;51.982;5.878;2024-01-15T00:50:19;2.60;99.90
39033;DHT22;24794;51.982;5.878;2024-01-15T00:51:20;2.60;99.90
39033;DHT22;24794;51.982;5.878;2024-01-15T00:52:21;2.60;99.90
39033;DHT22;24794;51.982;5.878;2024-01-15T00:53:21;2.60;99.90
39033;DHT22;24794;51.982;5.878;2024-01-15T00:54:24;2.50;99.90
39033;DHT22;24794;51.982;5.878;2024-01-15T00:55:25;2.50;99.90
39033;DHT22;24794;51.982;5.878;2024-01-15T00:56:25;2.60;99.90
39033;DHT22;24794;51.982;5.878;2024-01-15T00:57:26;2.50;99.90
39033;DHT22;24794;51.982;5.878;2024-01-15T00:58:27;2.50;99.90
39033;DHT22;24794;51.982;5.878;2024-01-15T00:59:27;2.50;99.90
39033;DHT22;24794;51.982;5.878;2024-01-15T01:00:28;2.50;99.90
39033;DHT22;24794;51.982;5.878;2024-01-15T01:01:28;2.50;99.90
39033;DHT22;24794;51.982;5.878;2024-01-15T01:02:29;2.50;99.90
39033;DHT22;24794;51.982;5.878;2024-01-15T01:03:29;2.50;99.90
39033;DHT22;24794;51.982;5.878;2024-01-15T01:04:30;2.50;99.90
39033;DHT22;24794;51.982;5.878;2024-01-15T01:05:30;2.50;99.90
39033;DHT22;24794;51.982;5.878;2024-01-15T01:06:31;2.50;99.90
39033;DHT22;24794;51.982;5.878;2024-01-15T01:07:31;2.50;99.90
39033;DHT22;24794;51.982;5.878;2024-01-15T01:08:32;2.50;99.90
39033;DHT22;24794;51.982;5.878;2024-01-15T01:09:32;2.50;99.90
39033;DHT22;24794;51.982;5.878;2024-01-15T01:10:33;2.50;99.90
39033;DHT22;24794;51.982;5.878;2024-01-15T01:11:34;2.50;99.90
39033;DHT22;24794;51.982;5.878;2024-01-15T01:12:34;2.50;99.90
39033;DHT22;24794;51.982;5.878;2024-01-15T01:13:35;2.50;99.90
39033;DHT22;24794;51.982;5.878;2024-01-15T01:14:35;2.40;99.90
39033;DHT22;24794;51.982;5.878;2024-01-15T01:15:36;2.50;99.90
39033;DHT22;24794;51.982;5.878;2024-01-15T01:16:37;2.40;99.90
39033;DHT22;24794;51.982;5.878;2024-01-15T01:17:39;2.40;99.90
39033;DHT22;24794;51.982;5.878;2024-01-15T01:18:39;2.40;99.90
39033;DHT22;24794;51.982;5.878;2024-01-15T01:19:40;2.40;99.90
39033;DHT22;24794;51.982;5.878;2024-01-15T01:20:40;2.50;99.90
39033;DHT22;24794;51.982;5.878;2024-01-15T01:21:41;2.40;99.90
39033;DHT22;24794;51.982;5.878;2024-01-15T01:22:41;2.40;99.90
39033;DHT22;24794;51.982;5.878;2024-01-15T01:23:42;2.40;99.90
39033;DHT22;24794;51.982;5.878;2024-01-15T01:24:43;2.40;99.90
39033;DHT22;24794;51.982;5.878;2024-01-15T01:25:43;2.40;99.90
39033;DHT22;24794;51.982;5.878;2024-01-15T01:26:44;2.40;99.90
39033;DHT22;24794;51.982;5.878;2024-01-15T01:27:46;2.40;99.90
39033;DHT22;24794;51.982;5.878;2024-01-15T01:28:46;2.40;99.90
39033;DHT22;24794;51.982;5.878;2024-01-15T01:29:47;2.40;99.90
39033;DHT22;24794;51.982;5.878;2024-01-15T01:30:47;2.40;99.90
39033;DHT22;24794;51.982;5.878;2024-01-15T01:31:48;2.30;99.90
39033;DHT22;24794;51.982;5.878;2024-01-15T01:32:49;2.30;99.90
39033;DHT22;24794;51.982;5.878;2024-01-15T01:33:49;2.40;99.90
39033;DHT22;24794;51.982;5.878;2024-01-15T01:34:50;2.40;99.90
39033;DHT22;24794;51.982;5.878;2024-01-15T01:35:50;2.30;99.90
39033;DHT22;24794;51.982;5.878;2024-01-15T01:36:51;2.30;99.90
39033;DHT22;24794;51.982;5.878;2024-01-15T01:37:51;2.30;99.90
39033;DHT22;24794;51.982;5.878;2024-01-15T01:38:52;2.40;99.90
39033;DHT22;24794;51.982;5.878;2024-01-15T01:39:52;2.30;99.90
39033;DHT22;24794;51.982;5.878;2024-01-15T01:40:53;2.30;99.90
39033;DHT22;24794;51.982;5.878;2024-01-15T01:41:54;2.40;99.90
39033;DHT22;24794;51.982;5.878;2024-01-15T01:42:54;2.30;99.90
39033;DHT22;24794;51.982;5.878;2024-01-15T01:43:55;2.30;99.90
39033;DHT22;24794;51.982;5.878;2024-01-15T01:44:55;2.40;99.90
39033;DHT22;24794;51.982;5.878;2024-01-15T01:45:57;2.30;99.90
39033;DHT22;24794;51.982;5.878;2024-01-15T01:47:01;2.30;99.90
39033;DHT22;24794;51.982;5.878;2024-01-15T01:48:02;2.40;99.90
39033;DHT22;24794;51.982;5.878;2024-01-15T01:49:03;2.40;99.90
39033;DHT22;24794;51.982;5.878;2024-01-15T01:50:06;2.30;99.90
39033;DHT22;24794;51.982;5.878;2024-01-15T01:51:07;2.30;99.90
39033;DHT22;24794;51.982;5.878;2024-01-15T01:52:09;2.30;99.90
39033;DHT22;24794;51.982;5.878;2024-01-15T01:53:09;2.30;99.90
39033;DHT22;24794;51.982;5.878;2024-01-15T01:54:11;2.30;99.90
39033;DHT22;24794;51.982;5.878;2024-01-15T01:55:14;2.30;99.90
39033;DHT22;24794;51.982;5.878;2024-01-15T01:56:15;2.30;99.90
39033;DHT22;24794;51.982;5.878;2024-01-15T01:57:16;2.30;99.90
39033;DHT22;24794;51.982;5.878;2024-01-15T01:58:19;2.30;99.90
39033;DHT22;24794;51.982;5.878;2024-01-15T01:59:20;2.30;99.90
39033;DHT22;24794;51.982;5.878;2024-01-15T02:00:22;2.30;99.90
39033;DHT22;24794;51.982;5.878;2024-01-15T02:01:23;2.30;99.90
39033;DHT22;24794;51.982;5.878;2024-01-15T02:02:24;2.30;99.90
39033;DHT22;24794;51.982;5.878;2024-01-15T02:03:26;2.40;99.90
39033;DHT22;24794;51.982;5.878;2024-01-15T02:04:28;2.40;99.90
39033;DHT22;24794;51.982;5.878;2024-01-15T02:05:29;2.30;99.90
39033;DHT22;24794;51.982;5.878;2024-01-15T02:06:30;2.30;99.90
39033;DHT22;24794;51.982;5.878;2024-01-15T02:07:34;2.40;99.90
39033;DHT22;24794;51.982;5.878;2024-01-15T02:08:35;2.30;99.90
39033;DHT22;24794;51.982;5.878;2024-01-15T02:09:36;2.40;99.90
39033;DHT22;24794;51.982;5.878;2024-01-15T02:10:36;2.40;99.90
39033;DHT22;24794;51.982;5.878;2024-01-15T02:11:37;2.40;99.90
39033;DHT22;24794;51.982;5.878;2024-01-15T02:12:38;2.40;99.90
39033;DHT22;24794;51.982;5.878;2024-01-15T02:13:39;2.40;99.90
39033;DHT22;24794;51.982;5.878;2024-01-15T02:14:40;2.40;99.90
39033;DHT22;24794;51.982;5.878;2024-01-15T02:15:40;2.40;99.90
39033;DHT22;24794;51.982;5.878;2024-01-15T02:16:41;2.40;99.90
39033;DHT22;24794;51.982;5.878;2024-01-15T02:18:01;2.30;99.90
39033;DHT22;24794;51.982;5.878;2024-01-15T02:19:02;2.40;99.90
39033;DHT22;24794;51.982;5.878;2024-01-15T02:20:03;2.40;99.90
39033;DHT22;24794;51.982;5.878;2024-01-15T02:21:04;2.40;99.90
39033;DHT22;24794;51.982;5.878;2024-01-15T02:22:04;2.40;99.90
39033;DHT22;24794;51.982;5.878;2024-01-15T02:23:09;2.40;99.90
39033;DHT22;24794;51.982;5.878;2024-01-15T02:24:11;2.30;99.90
39033;DHT22;24794;51.982;5.878;2024-01-15T02:25:11;2.30;99.90
39033;DHT22;24794;51.982;5.878;2024-01-15T02:26:12;2.30;99.90
39033;DHT22;24794;51.982;5.878;2024-01-15T02:27:12;2.30;99.90
39033;DHT22;24794;51.982;5.878;2024-01-15T02:28:15;2.30;99.90
39033;DHT22;24794;51.982;5.878;2024-01-15T02:29:16;2.30;99.90
39033;DHT22;24794;51.982;5.878;2024-01-15T02:30:17;2.30;99.90
39033;DHT22;24794;51.982;5.878;2024-01-15T02:31:17;2.30;99.90
39033;DHT22;24794;51.982;5.878;2024-01-15T02:32:18;2.30;99.90
39033;DHT22;24794;51.982;5.878;2024-01-15T02:33:19;2.30;99.90
39033;DHT22;24794;51.982;5.878;2024-01-15T02:34:19;2.20;99.90
39033;DHT22;24794;51.982;5.878;2024-01-15T02:35:20;2.30;99.90
39033;DHT22;24794;51.982;5.878;2024-01-15T02:36:20;2.20;99.90
39033;DHT22;24794;51.982;5.878;2024-01-15T02:37:21;2.20;99.90
39033;DHT22;24794;51.982;5.878;2024-01-15T02:38:21;2.20;99.90
39033;DHT22;24794;51.982;5.878;2024-01-15T02:39:22;2.20;99.90
39033;DHT22;24794;51.982;5.878;2024-01-15T02:40:23;2.20;99.90
39033;DHT22;24794;51.982;5.878;2024-01-15T02:41:23;2.20;99.90
39033;DHT22;24794;51.982;5.878;2024-01-15T02:42:26;2.20;99.90
39033;DHT22;24794;51.982;5.878;2024-01-15T02:43:26;2.20;99.90
39033;DHT22;24794;51.982;5.878;2024-01-15T02:44:27;2.30;99.90
39033;DHT22;24794;51.982;5.878;2024-01-15T02:45:27;2.20;99.90
39033;DHT22;24794;51.982;5.878;2024-01-15T02:46:28;2.30;99.90
39033;DHT22;24794;51.982;5.878;2024-01-15T02:47:28;2.30;99.90
39033;DHT22;24794;51.982;5.878;2024-01-15T02:48:29;2.30;99.90
39033;DHT22;24794;51.982;5.878;2024-01-15T02:49:30;2.30;99.90
39033;DHT22;24794;51.982;5.878;2024-01-15T02:50:31;2.30;99.90
39033;DHT22;24794;51.982;5.878;2024-01-15T02:51:32;2.30;99.90
39033;DHT22;24794;51.982;5.878;2024-01-15T02:52:32;2.30;99.90
39033;DHT22;24794;51.982;5.878;2024-01-15T02:53:33;2.30;99.90
39033;DHT22;24794;51.982;5.878;2024-01-15T02:54:33;2.30;99.90
39033;DHT22;24794;51.982;5.878;2024-01-15T02:55:34;2.30;99.90
39033;DHT22;24794;51.982;5.878;2024-01-15T02:56:34;2.40;99.90
39033;DHT22;24794;51.982;5.878;2024-01-15T02:57:35;2.30;99.90
39033;DHT22;24794;51.982;5.878;2024-01-15T02:58:36;2.40;99.90
39033;DHT22;24794;51.982;5.878;2024-01-15T02:59:36;2.40;99.90
39033;DHT22;24794;51.982;5.878;2024-01-15T03:00:37;2.30;99.90
39033;DHT22;24794;51.982;5.878;2024-01-15T03:01:37;2.40;99.90
39033;DHT22;24794;51.982;5.878;2024-01-15T03:02:39;2.40;99.90
39033;DHT22;24794;51.982;5.878;2024-01-15T03:03:40;2.30;99.90
39033;DHT22;24794;51.982;5.878;2024-01-15T03:04:44;2.40;99.90
39033;DHT22;24794;51.982;5.878;2024-01-15T03:05:45;2.30;99.90
39033;DHT22;24794;51.982;5.878;2024-01-15T03:06:45;2.30;99.90
39033;DHT22;24794;51.982;5.878;2024-01-15T03:07:46;2.30;99.90
39033;DHT22;24794;51.982;5.878;2024-01-15T03:08:46;2.30;99.90
39033;DHT22;24794;51.982;5.878;2024-01-15T03:09:47;2.30;99.90
39033;DHT22;24794;51.982;5.878;2024-01-15T03:10:47;2.30;99.90
39033;DHT22;24794;51.982;5.878;2024-01-15T03:11:48;2.30;99.90
39033;DHT22;24794;51.982;5.878;2024-01-15T03:12:49;2.30;99.90
39033;DHT22;24794;51.982;5.878;2024-01-15T03:13:49;2.30;99.90
39033;DHT22;24794;51.982;5.878;2024-01-15T03:14:50;2.30;99.90
39033;DHT22;24794;51.982;5.878;2024-01-15T03:15:50;2.30;99.90
39033;DHT22;24794;51.982;5.878;2024-01-15T03:16:51;2.30;99.90
39033;DHT22;24794;51.982;5.878;2024-01-15T03:17:52;2.30;99.90
39033;DHT22;24794;51.982;5.878;2024-01-15T03:18:52;2.30;99.90
39033;DHT22;24794;51.982;5.878;2024-01-15T03:19:53;2.30;99.90
39033;DHT22;24794;51.982;5.878;2024-01-15T03:20:54;2.30;99.90
39033;DHT22;24794;51.982;5.878;2024-01-15T03:21:54;2.30;99.90
39033;DHT22;24794;51.982;5.878;2024-01-15T03:22:55;2.30;99.90
39033;DHT22;24794;51.982;5.878;2024-01-15T03:23:55;2.30;99.90
39033;DHT22;24794;51.982;5.878;2024-01-15T03:24:56;2.20;99.90
39033;DHT22;24794;51.982;5.878;2024-01-15T03:25:56;2.20;99.90
39033;DHT22;24794;51.982;5.878;2024-01-15T03:26:57;2.20;99.90
39033;DHT22;24794;51.982;5.878;2024-01-15T03:27:58;2.30;99.90
39033;DHT22;24794;51.982;5.878;2024-01-15T03:28:58;2.20;99.90
39033;DHT22;24794;51.982;5.878;2024-01-15T03:29:59;2.20;99.90
39033;DHT22;24794;51.982;5.878;2024-01-15T03:30:59;2.20;99.90
39033;DHT22;24794;51.982;5.878;2024-01-15T03:32:00;2.20;99.90
39033;DHT22;24794;51.982;5.878;2024-01-15T03:33:00;2.20;99.90
39033;DHT22;24794;51.982;5.878;2024-01-15T03:34:01;2.20;99.90
39033;DHT22;24794;51.982;5.878;2024-01-15T03:35:01;2.30;99.90
39033;DHT22;24794;51.982;5.878;2024-01-15T03:36:02;2.20;99.90
39033;DHT22;24794;51.982;5.878;2024-01-15T03:37:03;2.20;99.90
39033;DHT22;24794;51.982;5.878;2024-01-15T03:38:04;2.20;99.90
39033;DHT22;24794;51.982;5.878;2024-01-15T03:39:04;2.20;99.90
39033;DHT22;24794;51.982;5.878;2024-01-15T03:40:05;2.20;99.90
39033;DHT22;24794;51.982;5.878;2024-01-15T03:41:06;2.20;99.90
39033;DHT22;24794;51.982;5.878;2024-01-15T03:42:06;2.20;99.90
39033;DHT22;24794;51.982;5.878;2024-01-15T03:43:07;2.20;99.90
39033;DHT22;24794;51.982;5.878;2024-01-15T03:44:08;2.20;99.90
39033;DHT22;24794;51.982;5.878;2024-01-15T03:45:08;2.20;99.90
39033;DHT22;24794;51.982;5.878;2024-01-15T03:46:09;2.20;99.90
39033;DHT22;24794;51.982;5.878;2024-01-15T03:47:09;2.20;99.90
39033;DHT22;24794;51.982;5.878;2024-01-15T03:48:10;2.20;99.90
39033;DHT22;24794;51.982;5.878;2024-01-15T03:49:10;2.20;99.90
39033;DHT22;24794;51.982;5.878;2024-01-15T03:50:11;2.20;99.90
39033;DHT22;24794;51.982;5.878;2024-01-15T03:51:12;2.20;99.90
39033;DHT22;24794;51.982;5.878;2024-01-15T03:52:12;2.20;99.90
39033;DHT22;24794;51.982;5.878;2024-01-15T03:53:13;2.20;99.90
39033;DHT22;24794;51.982;5.878;2024-01-15T03:54:13;2.20;99.90
39033;DHT22;24794;51.982;5.878;2024-01-15T03:55:14;2.20;99.90
39033;DHT22;24794;51.982;5.878;2024-01-15T03:56:14;2.20;99.90
39033;DHT22;24794;51.982;5.878;2024-01-15T03:57:15;2.20;99.90
39033;DHT22;24794;51.982;5.878;2024-01-15T03:58:15;2.20;99.90
39033;DHT22;24794;51.982;5.878;2024-01-15T03:59:16;2.20;99.90
39033;DHT22;24794;51.982;5.878;2024-01-15T04:00:17;2.20;99.90
39033;DHT22;24794;51.982;5.878;2024-01-15T04:01:17;2.20;99.90
39033;DHT22;24794;51.982;5.878;2024-01-15T04:02:18;2.20;99.90
39033;DHT22;24794;51.982;5.878;2024-01-15T04:03:18;2.20;99.90
39033;DHT22;24794;51.982;5.878;2024-01-15T04:04:19;2.30;99.90
39033;DHT22;24794;51.982;5.878;2024-01-15T04:05:20;2.30;99.90
39033;DHT22;24794;51.982;5.878;2024-01-15T04:06:20;2.30;99.90
39033;DHT22;24794;51.982;5.878;2024-01-15T04:07:21;2.40;99.90
39033;DHT22;24794;51.982;5.878;2024-01-15T04:08:21;2.40;99.90
39033;DHT22;24794;51.982;5.878;2024-01-15T04:09:22;2.40;99.90
39033;DHT22;24794;51.982;5.878;2024-01-15T04:10:23;2.40;99.90
39033;DHT22;24794;51.982;5.878;2024-01-15T04:11:23;2.40;99.90
39033;DHT22;24794;51.982;5.878;2024-01-15T04:12:24;2.40;99.90
39033;DHT22;24794;51.982;5.878;2024-01-15T04:13:24;2.40;99.90
39033;DHT22;24794;51.982;5.878;2024-01-15T04:14:25;2.40;99.90
39033;DHT22;24794;51.982;5.878;2024-01-15T04:15:25;2.40;99.90
39033;DHT22;24794;51.982;5.878;2024-01-15T04:16:26;2.40;99.90
39033;DHT22;24794;51.982;5.878;2024-01-15T04:17:27;2.40;99.90
39033;DHT22;24794;51.982;5.878;2024-01-15T04:18:28;2.40;99.90
39033;DHT22;24794;51.982;5.878;2024-01-15T04:19:28;2.40;99.90
39033;DHT22;24794;51.982;5.878;2024-01-15T04:20:29;2.40;99.90
39033;DHT22;24794;51.982;5.878;2024-01-15T04:21:29;2.40;99.90
39033;DHT22;24794;51.982;5.878;2024-01-15T04:22:30;2.40;99.90
39033;DHT22;24794;51.982;5.878;2024-01-15T04:23:30;2.30;99.90
39033;DHT22;24794;51.982;5.878;2024-01-15T04:24:31;2.30;99.90
39033;DHT22;24794;51.982;5.878;2024-01-15T04:25:32;2.30;99.90
39033;DHT22;24794;51.982;5.878;2024-01-15T04:26:33;2.30;99.90
39033;DHT22;24794;51.982;5.878;2024-01-15T04:27:33;2.20;99.90
39033;DHT22;24794;51.982;5.878;2024-01-15T04:28:34;2.30;99.90
39033;DHT22;24794;51.982;5.878;2024-01-15T04:29:37;2.20;99.90
39033;DHT22;24794;51.982;5.878;2024-01-15T04:30:37;2.20;99.90
39033;DHT22;24794;51.982;5.878;2024-01-15T04:31:38;2.20;99.90
39033;DHT22;24794;51.982;5.878;2024-01-15T04:32:38;2.20;99.90
39033;DHT22;24794;51.982;5.878;2024-01-15T04:33:39;2.20;99.90
39033;DHT22;24794;51.982;5.878;2024-01-15T04:34:39;2.20;99.90
39033;DHT22;24794;51.982;5.878;2024-01-15T04:35:40;2.20;99.90
39033;DHT22;24794;51.982;5.878;2024-01-15T04:36:41;2.20;99.90
39033;DHT22;24794;51.982;5.878;2024-01-15T04:37:42;2.20;99.90
39033;DHT22;24794;51.982;5.878;2024-01-15T04:38:42;2.20;99.90
39033;DHT22;24794;51.982;5.878;2024-01-15T04:39:43;2.20;99.90
39033;DHT22;24794;51.982;5.878;2024-01-15T04:40:43;2.10;99.90
39033;DHT22;24794;51.982;5.878;2024-01-15T04:41:44;2.10;99.90
39033;DHT22;24794;51.982;5.878;2024-01-15T04:42:44;2.10;99.90
39033;DHT22;24794;51.982;5.878;2024-01-15T04:43:46;2.10;99.90
39033;DHT22;24794;51.982;5.878;2024-01-15T04:44:47;2.10;99.90
39033;DHT22;24794;51.982;5.878;2024-01-15T04:45:47;2.10;99.90
39033;DHT22;24794;51.982;5.878;2024-01-15T04:46:48;2.20;99.90
39033;DHT22;24794;51.982;5.878;2024-01-15T04:47:49;2.20;99.90
39033;DHT22;24794;51.982;5.878;2024-01-15T04:48:49;2.10;99.90
39033;DHT22;24794;51.982;5.878;2024-01-15T04:49:50;2.10;99.90
39033;DHT22;24794;51.982;5.878;2024-01-15T04:50:51;2.10;99.90
39033;DHT22;24794;51.982;5.878;2024-01-15T04:51:51;2.10;99.90
39033;DHT22;24794;51.982;5.878;2024-01-15T04:52:52;2.10;99.90
39033;DHT22;24794;51.982;5.878;2024-01-15T04:53:52;2.10;99.90
39033;DHT22;24794;51.982;5.878;2024-01-15T04:54:53;2.10;99.90
39033;DHT22;24794;51.982;5.878;2024-01-15T04:55:54;2.10;99.90
39033;DHT22;24794;51.982;5.878;2024-01-15T04:56:54;2.10;99.90
39033;DHT22;24794;51.982;5.878;2024-01-15T04:57:55;2.10;99.90
39033;DHT22;24794;51.982;5.878;2024-01-15T04:58:55;2.10;99.90
39033;DHT22;24794;51.982;5.878;2024-01-15T04:59:56;2.10;99.90
39033;DHT22;24794;51.982;5.878;2024-01-15T05:00:56;2.10;99.90
39033;DHT22;24794;51.982;5.878;2024-01-15T05:01:57;2.10;99.90
39033;DHT22;24794;51.982;5.878;2024-01-15T05:02:57;2.10;99.90
39033;DHT22;24794;51.982;5.878;2024-01-15T05:03:58;2.10;99.90
39033;DHT22;24794;51.982;5.878;2024-01-15T05:04:59;2.10;99.90
39033;DHT22;24794;51.982;5.878;2024-01-15T05:05:59;2.10;99.90
39033;DHT22;24794;51.982;5.878;2024-01-15T05:07:00;2.10;99.90
39033;DHT22;24794;51.982;5.878;2024-01-15T05:08:00;2.10;99.90
39033;DHT22;24794;51.982;5.878;2024-01-15T05:09:01;2.10;99.90
39033;DHT22;24794;51.982;5.878;2024-01-15T05:10:02;2.10;99.90
39033;DHT22;24794;51.982;5.878;2024-01-15T05:11:03;2.10;99.90
39033;DHT22;24794;51.982;5.878;2024-01-15T05:12:04;2.10;99.90
39033;DHT22;24794;51.982;5.878;2024-01-15T05:13:04;2.10;99.90
39033;DHT22;24794;51.982;5.878;2024-01-15T05:14:05;2.10;99.90
39033;DHT22;24794;51.982;5.878;2024-01-15T05:15:06;2.10;99.90
39033;DHT22;24794;51.982;5.878;2024-01-15T05:16:06;2.10;99.90
39033;DHT22;24794;51.982;5.878;2024-01-15T05:17:07;2.10;99.90
39033;DHT22;24794;51.982;5.878;2024-01-15T05:18:07;2.10;99.90
39033;DHT22;24794;51.982;5.878;2024-01-15T05:19:08;2.10;99.90
39033;DHT22;24794;51.982;5.878;2024-01-15T05:20:09;2.10;99.90
39033;DHT22;24794;51.982;5.878;2024-01-15T05:21:10;2.10;99.90
39033;DHT22;24794;51.982;5.878;2024-01-15T05:22:11;2.10;99.90
39033;DHT22;24794;51.982;5.878;2024-01-15T05:23:11;2.10;99.90
39033;DHT22;24794;51.982;5.878;2024-01-15T05:24:12;2.10;99.90
39033;DHT22;24794;51.982;5.878;2024-01-15T05:25:12;2.10;99.90
39033;DHT22;24794;51.982;5.878;2024-01-15T05:26:13;2.10;99.90
39033;DHT22;24794;51.982;5.878;2024-01-15T05:27:13;2.10;99.90
39033;DHT22;24794;51.982;5.878;2024-01-15T05:28:14;2.10;99.90
39033;DHT22;24794;51.982;5.878;2024-01-15T05:29:15;2.10;99.90
39033;DHT22;24794;51.982;5.878;2024-01-15T05:30:16;2.10;99.90
39033;DHT22;24794;51.982;5.878;2024-01-15T05:31:16;2.10;99.90
39033;DHT22;24794;51.982;5.878;2024-01-15T05:32:17;2.10;99.90
39033;DHT22;24794;51.982;5.878;2024-01-15T05:33:17;2.10;99.90
39033;DHT22;24794;51.982;5.878;2024-01-15T05:34:18;2.10;99.90
39033;DHT22;24794;51.982;5.878;2024-01-15T05:35:18;2.10;99.90
39033;DHT22;24794;51.982;5.878;2024-01-15T05:36:19;2.10;99.90
39033;DHT22;24794;51.982;5.878;2024-01-15T05:37:20;2.10;99.90
39033;DHT22;24794;51.982;5.878;2024-01-15T05:38:20;2.10;99.90
39033;DHT22;24794;51.982;5.878;2024-01-15T05:39:21;2.10;99.90
39033;DHT22;24794;51.982;5.878;2024-01-15T05:40:22;2.10;99.90
39033;DHT22;24794;51.982;5.878;2024-01-15T05:41:22;2.10;99.90
39033;DHT22;24794;51.982;5.878;2024-01-15T05:42:23;2.10;99.90
39033;DHT22;24794;51.982;5.878;2024-01-15T05:43:23;2.10;99.90
39033;DHT22;24794;51.982;5.878;2024-01-15T05:44:24;2.10;99.90
39033;DHT22;24794;51.982;5.878;2024-01-15T05:45:26;2.10;99.90
39033;DHT22;24794;51.982;5.878;2024-01-15T05:46:27;2.10;99.90
39033;DHT22;24794;51.982;5.878;2024-01-15T05:47:27;2.10;99.90
39033;DHT22;24794;51.982;5.878;2024-01-15T05:48:28;2.10;99.90
39033;DHT22;24794;51.982;5.878;2024-01-15T05:49:28;2.10;99.90
39033;DHT22;24794;51.982;5.878;2024-01-15T05:50:29;2.10;99.90
39033;DHT22;24794;51.982;5.878;2024-01-15T05:51:30;2.10;99.90
39033;DHT22;24794;51.982;5.878;2024-01-15T05:52:30;2.10;99.90
39033;DHT22;24794;51.982;5.878;2024-01-15T05:53:31;2.10;99.90
39033;DHT22;24794;51.982;5.878;2024-01-15T05:54:32;2.10;99.90
39033;DHT22;24794;51.982;5.878;2024-01-15T05:55:32;2.10;99.90
39033;DHT22;24794;51.982;5.878;2024-01-15T05:56:33;2.10;99.90
39033;DHT22;24794;51.982;5.878;2024-01-15T05:57:33;2.10;99.90
39033;DHT22;24794;51.982;5.878;2024-01-15T05:58:34;2.10;99.90
39033;DHT22;24794;51.982;5.878;2024-01-15T05:59:34;2.10;99.90
39033;DHT22;24794;51.982;5.878;2024-01-15T06:00:36;2.10;99.90
39033;DHT22;24794;51.982;5.878;2024-01-15T06:01:38;2.10;99.90
39033;DHT22;24794;51.982;5.878;2024-01-15T06:02:39;2.10;99.90
39033;DHT22;24794;51.982;5.878;2024-01-15T06:03:39;2.10;99.90
39033;DHT22;24794;51.982;5.878;2024-01-15T06:04:40;2.10;99.90
39033;DHT22;24794;51.982;5.878;2024-01-15T06:05:41;2.10;99.90
39033;DHT22;24794;51.982;5.878;2024-01-15T06:06:41;2.10;99.90
39033;DHT22;24794;51.982;5.878;2024-01-15T06:07:42;2.10;99.90
39033;DHT22;24794;51.982;5.878;2024-01-15T06:08:42;2.10;99.90
39033;DHT22;24794;51.982;5.878;2024-01-15T06:09:43;2.10;99.90
39033;DHT22;24794;51.982;5.878;2024-01-15T06:10:43;2.10;99.90
39033;DHT22;24794;51.982;5.878;2024-01-15T06:11:44;2.10;99.90
39033;DHT22;24794;51.982;5.878;2024-01-15T06:12:44;2.20;99.90
39033;DHT22;24794;51.982;5.878;2024-01-15T06:13:45;2.20;99.90
39033;DHT22;24794;51.982;5.878;2024-01-15T06:14:46;2.20;99.90
39033;DHT22;24794;51.982;5.878;2024-01-15T06:15:47;2.20;99.90
39033;DHT22;24794;51.982;5.878;2024-01-15T06:16:47;2.20;99.90
39033;DHT22;24794;51.982;5.878;2024-01-15T06:17:48;2.20;99.90
39033;DHT22;24794;51.982;5.878;2024-01-15T06:18:48;2.20;99.90
39033;DHT22;24794;51.982;5.878;2024-01-15T06:19:49;2.20;99.90
39033;DHT22;24794;51.982;5.878;2024-01-15T06:20:49;2.20;99.90
39033;DHT22;24794;51.982;5.878;2024-01-15T06:21:50;2.20;99.90
39033;DHT22;24794;51.982;5.878;2024-01-15T06:22:50;2.20;99.90
39033;DHT22;24794;51.982;5.878;2024-01-15T06:23:51;2.30;99.90
39033;DHT22;24794;51.982;5.878;2024-01-15T06:24:52;2.30;99.90
39033;DHT22;24794;51.982;5.878;2024-01-15T06:25:52;2.30;99.90
39033;DHT22;24794;51.982;5.878;2024-01-15T06:26:52;2.30;99.90
39033;DHT22;24794;51.982;5.878;2024-01-15T06:27:53;2.30;99.90
39033;DHT22;24794;51.982;5.878;2024-01-15T06:28:54;2.30;99.90
39033;DHT22;24794;51.982;5.878;2024-01-15T06:29:54;2.30;99.90